createdAt,value
2019-01-19T00:00:52.016Z,2.30
2019-01-19T00:03:46.730Z,2.10
2019-01-19T00:06:55.968Z,2.20
2019-01-19T00:09:32.920Z,2.50
2019-01-19T00:12:35.472Z,2.30
2019-01-19T00:15:19.507Z,2.20
2019-01-19T00:18:15.852Z,2.27
2019-01-19T00:21:20.738Z,2.70
2019-01-19T00:24:29.537Z,2.53
2019-01-19T00:27:34.040Z,2.47
2019-01-19T00:30:33.908Z,2.37
2019-01-19T00:33:26.456Z,2.70
2019-01-19T00:36:26.259Z,2.60
2019-01-19T00:39:22.722Z,2.43
2019-01-19T00:42:22.598Z,2.57
2019-01-19T00:45:35.846Z,2.47
2019-01-19T00:48:38.524Z,2.40
2019-01-19T00:51:39.477Z,2.20
2019-01-19T00:54:19.623Z,2.60
2019-01-19T00:57:18.956Z,2.97
2019-01-19T00:59:53.210Z,2.57
2019-01-19T01:02:38.646Z,2.60
2019-01-19T01:05:25.458Z,2.73
2019-01-19T01:08:28.541Z,2.40
2019-01-19T01:11:24.462Z,2.40
2019-01-19T01:14:20.408Z,2.70
2019-01-19T01:17:12.089Z,2.93
2019-01-19T01:20:16.076Z,2.70
2019-01-19T01:22:53.709Z,2.60
2019-01-19T01:26:18.811Z,2.67
2019-01-19T01:29:02.580Z,2.80
2019-01-19T01:31:58.943Z,2.57
2019-01-19T01:34:50.026Z,2.63
2019-01-19T01:37:43.757Z,2.60
2019-01-19T01:40:42.655Z,2.50
2019-01-19T01:43:33.289Z,2.63
2019-01-19T01:46:47.424Z,2.90
2019-01-19T01:49:50.447Z,2.67
2019-01-19T01:52:56.251Z,2.70
2019-01-19T01:55:34.635Z,2.60
2019-01-19T01:58:36.927Z,3.07
2019-01-19T02:01:40.333Z,2.40
2019-01-19T02:05:02.848Z,2.60
2019-01-19T02:07:57.824Z,2.80
2019-01-19T02:11:02.255Z,2.60
2019-01-19T02:13:43.549Z,2.87
2019-01-19T02:17:11.708Z,2.77
2019-01-19T02:20:23.175Z,2.70
2019-01-19T02:23:22.785Z,2.77
2019-01-19T02:26:15.976Z,2.60
2019-01-19T02:29:02.625Z,2.80
2019-01-19T02:32:05.543Z,2.70
2019-01-19T02:35:12.031Z,2.90
2019-01-19T02:38:04.301Z,2.80
2019-01-19T02:41:13.513Z,2.57
2019-01-19T02:44:26.628Z,2.87
2019-01-19T02:47:26.687Z,2.90
2019-01-19T02:50:35.653Z,2.77
2019-01-19T02:53:40.294Z,3.07
2019-01-19T02:57:02.449Z,2.73
2019-01-19T02:59:57.519Z,2.70
2019-01-19T03:02:56.893Z,2.70
2019-01-19T03:05:56.365Z,2.53
2019-01-19T03:09:18.055Z,2.80
2019-01-19T03:12:04.388Z,2.50
2019-01-19T03:15:24.679Z,2.87
2019-01-19T03:18:24.552Z,2.80
2019-01-19T03:21:37.576Z,3.13
2019-01-19T03:24:45.267Z,2.83
2019-01-19T03:27:30.997Z,2.63
2019-01-19T03:30:42.994Z,2.80
2019-01-19T03:33:51.495Z,2.77
2019-01-19T03:36:52.202Z,2.80
2019-01-19T03:40:11.622Z,3.20
2019-01-19T03:43:06.581Z,2.57
2019-01-19T03:46:23.305Z,2.57
2019-01-19T03:49:51.837Z,2.57
2019-01-19T03:52:45.749Z,2.57
2019-01-19T03:55:45.352Z,3.00
2019-01-19T03:58:38.858Z,2.70
2019-01-19T04:01:27.109Z,2.80
2019-01-19T04:04:47.694Z,3.07
2019-01-19T04:07:48.445Z,3.00
2019-01-19T04:11:01.549Z,2.50
2019-01-19T04:13:54.839Z,2.77
2019-01-19T04:17:01.535Z,2.77
2019-01-19T04:19:59.141Z,2.87
2019-01-19T04:22:53.629Z,2.90
2019-01-19T04:25:44.432Z,2.90
2019-01-19T04:28:14.793Z,2.63
2019-01-19T04:30:43.559Z,3.00
2019-01-19T04:33:12.313Z,2.80
2019-01-19T04:35:41.078Z,2.93
2019-01-19T04:38:09.821Z,3.10
2019-01-19T04:40:38.661Z,2.90
2019-01-19T04:43:07.414Z,3.13
2019-01-19T04:45:36.183Z,3.10
2019-01-19T04:48:05.069Z,4.83
2019-01-19T04:50:33.829Z,4.30
2019-01-19T04:53:02.729Z,4.40
2019-01-19T04:55:31.462Z,6.87
2019-01-19T04:58:00.228Z,6.07
2019-01-19T05:00:28.990Z,10.57
2019-01-19T05:02:57.770Z,10.27
2019-01-19T05:05:26.502Z,9.70
2019-01-19T05:07:55.288Z,12.80
2019-01-19T05:10:24.132Z,12.40
2019-01-19T05:12:52.910Z,13.00
2019-01-19T05:15:22.447Z,12.00
2019-01-19T05:17:51.301Z,13.83
2019-01-19T05:20:20.061Z,14.27
2019-01-19T05:22:48.858Z,16.60
2019-01-19T05:25:17.647Z,17.50
2019-01-19T05:27:46.439Z,18.87
2019-01-19T05:30:17.434Z,18.07
2019-01-19T05:35:26.018Z,20.43
2019-01-19T05:37:55.171Z,21.67
2019-01-19T05:40:24.302Z,19.33
2019-01-19T05:42:53.521Z,17.60
2019-01-19T05:45:22.646Z,15.77
2019-01-19T05:47:51.863Z,15.87
2019-01-19T05:50:22.599Z,17.00
2019-01-19T05:52:51.826Z,17.00
2019-01-19T05:55:21.024Z,13.67
2019-01-19T05:57:50.174Z,14.33
2019-01-19T06:00:23.368Z,16.80
2019-01-19T06:02:52.497Z,15.33
2019-01-19T06:05:21.752Z,14.97
2019-01-19T06:07:50.961Z,14.90
2019-01-19T06:10:20.128Z,13.33
2019-01-19T06:12:49.268Z,17.37
2019-01-19T06:15:18.548Z,15.70
2019-01-19T06:17:47.944Z,15.90
2019-01-19T06:20:17.080Z,18.13
2019-01-19T06:22:46.255Z,10.47
2019-01-19T06:25:15.676Z,15.03
2019-01-19T06:27:44.794Z,16.00
2019-01-19T06:30:19.146Z,16.47
2019-01-19T06:32:48.356Z,13.17
2019-01-19T06:35:17.668Z,14.57
2019-01-19T06:37:47.052Z,11.30
2019-01-19T06:40:16.861Z,13.03
2019-01-19T06:42:45.966Z,11.40
2019-01-19T06:45:20.424Z,13.50
2019-01-19T06:47:49.582Z,12.20
2019-01-19T06:50:18.744Z,13.37
2019-01-19T06:52:47.883Z,11.13
2019-01-19T06:55:19.593Z,12.90
2019-01-19T06:57:48.798Z,10.30
2019-01-19T07:00:18.167Z,10.07
2019-01-19T07:02:47.327Z,11.57
2019-01-19T07:05:16.472Z,10.97
2019-01-19T07:07:45.736Z,8.60
2019-01-19T07:10:17.219Z,11.30
2019-01-19T07:12:46.398Z,13.53
2019-01-19T07:15:15.591Z,9.90
2019-01-19T07:17:44.812Z,10.10
2019-01-19T07:20:16.321Z,11.50
2019-01-19T07:22:45.486Z,10.80
2019-01-19T07:25:14.890Z,8.43
2019-01-19T07:27:44.143Z,9.47
2019-01-19T07:30:15.310Z,10.00
2019-01-19T07:32:44.626Z,10.63
2019-01-19T07:35:14.279Z,10.63
2019-01-19T07:37:43.491Z,12.37
2019-01-19T07:40:14.855Z,10.87
2019-01-19T07:42:45.108Z,8.07
2019-01-19T07:45:14.904Z,8.33
2019-01-19T07:47:47.748Z,6.80
2019-01-19T07:50:18.053Z,9.63
2019-01-19T07:52:47.306Z,8.90
2019-01-19T07:55:16.982Z,8.13
2019-01-19T07:57:46.190Z,8.10
2019-01-19T08:00:21.803Z,7.43
2019-01-19T08:02:51.230Z,8.70
2019-01-19T08:05:20.492Z,10.27
2019-01-19T08:07:49.714Z,10.33
2019-01-19T08:10:18.880Z,7.53
2019-01-19T08:12:48.120Z,6.70
2019-01-19T08:15:20.344Z,9.07
2019-01-19T08:17:52.336Z,6.77
2019-01-19T08:20:23.291Z,7.80
2019-01-19T08:22:52.456Z,9.83
2019-01-19T08:25:21.682Z,8.17
2019-01-19T08:27:50.852Z,9.27
2019-01-19T08:30:22.176Z,6.53
2019-01-19T08:32:51.255Z,8.07
2019-01-19T08:35:25.638Z,6.23
2019-01-19T08:37:54.854Z,7.27
2019-01-19T08:40:26.442Z,6.93
2019-01-19T08:43:22.378Z,7.57
2019-01-19T08:45:51.673Z,7.27
2019-01-19T08:48:21.182Z,6.67
2019-01-19T08:50:50.334Z,6.03
2019-01-19T08:53:19.468Z,5.80
2019-01-19T08:55:49.978Z,6.30
2019-01-19T08:58:19.455Z,6.27
2019-01-19T09:00:48.645Z,6.73
2019-01-19T09:03:17.838Z,6.33
2019-01-19T09:05:47.072Z,7.10
2019-01-19T09:08:16.278Z,7.80
2019-01-19T09:10:45.374Z,7.63
2019-01-19T09:13:14.568Z,6.00
2019-01-19T09:15:43.773Z,6.30
2019-01-19T09:18:12.983Z,5.63
2019-01-19T09:20:42.129Z,6.40
2019-01-19T09:23:19.739Z,5.73
2019-01-19T09:25:49.098Z,8.70
2019-01-19T09:28:18.300Z,6.20
2019-01-19T09:30:47.575Z,5.93
2019-01-19T09:33:16.857Z,5.83
2019-01-19T09:35:45.968Z,6.27
2019-01-19T09:38:15.169Z,6.03
2019-01-19T09:40:44.317Z,5.20
2019-01-19T09:43:13.626Z,6.57
2019-01-19T09:45:42.822Z,8.70
2019-01-19T09:48:12.000Z,10.03
2019-01-19T09:50:41.325Z,6.50
2019-01-19T09:53:11.371Z,7.57
2019-01-19T09:55:40.531Z,7.07
2019-01-19T09:58:11.483Z,5.97
2019-01-19T10:00:45.498Z,7.37
2019-01-19T10:03:11.753Z,5.57
2019-01-19T10:05:41.001Z,5.83
2019-01-19T10:08:10.261Z,6.70
2019-01-19T10:10:39.675Z,6.30
2019-01-19T10:13:08.975Z,6.30
2019-01-19T10:15:38.187Z,5.93
2019-01-19T10:18:07.481Z,5.30
2019-01-19T10:20:36.751Z,5.50
2019-01-19T10:23:06.048Z,6.37
2019-01-19T10:25:35.307Z,4.53
2019-01-19T10:28:04.567Z,4.90
2019-01-19T10:30:33.821Z,4.90
2019-01-19T10:33:02.994Z,5.27
2019-01-19T10:35:32.195Z,5.27
2019-01-19T10:38:01.438Z,4.80
2019-01-19T10:40:31.203Z,4.90
2019-01-19T10:43:00.507Z,5.33
2019-01-19T10:45:29.754Z,4.57
2019-01-19T10:47:59.243Z,4.67
2019-01-19T10:50:28.419Z,4.20
2019-01-19T10:52:57.718Z,4.77
2019-01-19T10:55:26.972Z,5.00
2019-01-19T10:57:56.312Z,4.73
2019-01-19T11:00:27.701Z,5.30
2019-01-19T11:02:59.982Z,4.17
2019-01-19T11:05:29.369Z,4.77
2019-01-19T11:08:03.421Z,4.43
2019-01-19T11:10:31.000Z,4.27
2019-01-19T11:13:00.229Z,4.33
2019-01-19T11:15:29.523Z,4.20
2019-01-19T11:17:58.676Z,4.60
2019-01-19T11:20:29.223Z,4.50
2019-01-19T11:22:59.514Z,3.80
2019-01-19T11:25:28.749Z,4.27
2019-01-19T11:27:58.003Z,4.17
2019-01-19T11:30:28.733Z,3.80
2019-01-19T11:32:57.893Z,4.03
2019-01-19T11:35:27.052Z,4.07
2019-01-19T11:37:56.171Z,4.03
2019-01-19T11:40:30.711Z,4.30
2019-01-19T11:42:59.912Z,4.03
2019-01-19T11:45:29.191Z,3.73
2019-01-19T11:47:58.433Z,4.47
2019-01-19T11:50:27.789Z,4.10
2019-01-19T11:52:57.063Z,3.73
2019-01-19T11:55:26.462Z,3.77
2019-01-19T11:57:58.483Z,3.53
2019-01-19T12:00:29.290Z,3.93
2019-01-19T12:02:58.569Z,3.83
2019-01-19T12:05:30.234Z,3.73
2019-01-19T12:07:59.662Z,3.70
2019-01-19T12:10:29.823Z,3.60
2019-01-19T12:12:59.155Z,3.67
2019-01-19T12:15:28.663Z,3.80
2019-01-19T12:17:57.927Z,3.50
2019-01-19T12:20:35.851Z,5.97
2019-01-19T12:23:05.117Z,3.97
2019-01-19T12:25:34.433Z,4.43
2019-01-19T12:28:03.899Z,16.83
2019-01-19T12:30:33.103Z,21.07
2019-01-19T12:33:02.316Z,12.03
2019-01-19T12:35:31.572Z,7.33
2019-01-19T12:38:00.805Z,4.00
2019-01-19T12:40:30.099Z,3.67
2019-01-19T12:43:01.817Z,3.33
2019-01-19T12:45:37.117Z,6.13
2019-01-19T12:48:06.385Z,6.97
2019-01-19T12:50:35.714Z,6.33
2019-01-19T12:53:04.871Z,5.37
2019-01-19T12:55:34.101Z,3.97
2019-01-19T12:58:03.323Z,3.40
2019-01-19T13:00:32.528Z,3.37
2019-01-19T13:03:01.784Z,3.30
2019-01-19T13:05:54.734Z,4.80
2019-01-19T13:08:24.397Z,3.53
2019-01-19T13:11:09.205Z,4.27
2019-01-19T13:13:45.740Z,3.00
2019-01-19T13:16:48.377Z,2.90
2019-01-19T13:19:29.201Z,3.07
2019-01-19T13:22:54.838Z,2.90
2019-01-19T13:26:01.251Z,2.90
2019-01-19T13:29:10.726Z,2.67
2019-01-19T13:32:01.011Z,3.00
2019-01-19T13:35:08.934Z,2.67
2019-01-19T13:38:02.537Z,2.67
2019-01-19T13:41:15.043Z,2.17
2019-01-19T13:44:28.801Z,2.33
2019-01-19T13:47:34.558Z,2.87
2019-01-19T13:50:53.993Z,2.53
2019-01-19T13:53:53.197Z,2.60
2019-01-19T13:56:58.545Z,2.43
2019-01-19T13:59:52.257Z,3.57
2019-01-19T14:03:11.578Z,2.30
2019-01-19T14:06:00.207Z,2.33
2019-01-19T14:09:09.104Z,2.17
2019-01-19T14:12:08.526Z,2.40
2019-01-19T14:15:07.930Z,2.40
2019-01-19T14:18:00.818Z,2.60
2019-01-19T14:21:02.614Z,2.43
2019-01-19T14:23:41.633Z,2.10
2019-01-19T14:26:43.112Z,2.07
2019-01-19T14:30:07.481Z,1.83
2019-01-19T14:33:32.707Z,3.57
2019-01-19T14:36:35.208Z,2.10
2019-01-19T14:39:32.080Z,2.13
2019-01-19T14:42:10.500Z,1.97
2019-01-19T14:45:10.391Z,2.10
2019-01-19T14:48:11.582Z,2.20
2019-01-19T14:51:23.790Z,2.40
2019-01-19T14:54:46.361Z,2.10
2019-01-19T14:57:48.960Z,2.50
2019-01-19T15:01:01.564Z,2.23
2019-01-19T15:04:07.706Z,2.50
2019-01-19T15:07:06.042Z,1.97
2019-01-19T15:10:02.432Z,2.10
2019-01-19T15:13:03.306Z,1.97
2019-01-19T15:16:22.440Z,3.57
2019-01-19T15:19:38.641Z,2.30
2019-01-19T15:22:41.455Z,1.97
2019-01-19T15:25:36.414Z,2.13
2019-01-19T15:28:50.988Z,2.40
2019-01-19T15:31:45.626Z,1.93
2019-01-19T15:34:48.560Z,2.10
2019-01-19T15:38:01.872Z,2.73
2019-01-19T15:41:06.974Z,2.20
2019-01-19T15:44:15.663Z,2.03
2019-01-19T15:47:03.810Z,1.80
2019-01-19T15:50:21.103Z,1.80
2019-01-19T15:53:11.777Z,1.90
2019-01-19T15:56:29.967Z,2.07
2019-01-19T15:59:16.036Z,2.20
2019-01-19T16:02:30.036Z,2.17
2019-01-19T16:05:38.406Z,2.27
2019-01-19T16:08:44.226Z,2.07
2019-01-19T16:11:26.190Z,2.23
2019-01-19T16:14:35.116Z,2.20
2019-01-19T16:17:55.786Z,1.70
2019-01-19T16:21:12.024Z,1.77
2019-01-19T16:24:14.861Z,1.90
2019-01-19T16:27:26.542Z,1.70
2019-01-19T16:30:38.770Z,1.83
2019-01-19T16:33:40.279Z,2.23
2019-01-19T16:36:53.192Z,1.80
2019-01-19T16:39:53.272Z,2.00
2019-01-19T16:42:58.937Z,2.20
2019-01-19T16:45:49.029Z,2.07
2019-01-19T16:49:00.477Z,1.97
2019-01-19T16:52:04.573Z,1.80
2019-01-19T16:54:55.877Z,1.80
2019-01-19T16:58:02.700Z,1.70
2019-01-19T17:01:08.865Z,1.80
2019-01-19T17:04:18.394Z,1.90
2019-01-19T17:07:44.210Z,2.10
2019-01-19T17:10:48.253Z,1.90
2019-01-19T17:14:13.734Z,1.70
2019-01-19T17:17:21.355Z,2.17
2019-01-19T17:20:52.895Z,2.10
2019-01-19T17:24:04.718Z,1.97
2019-01-19T17:27:10.879Z,2.20
2019-01-19T17:30:04.554Z,2.20
2019-01-19T17:33:09.177Z,3.43
2019-01-19T17:36:19.080Z,2.10
2019-01-19T17:39:39.980Z,2.10
2019-01-19T17:42:29.410Z,2.37
2019-01-19T17:45:21.766Z,2.10
2019-01-19T17:48:30.189Z,2.40
2019-01-19T17:51:16.386Z,1.97
2019-01-19T17:54:18.149Z,2.30
2019-01-19T17:56:55.569Z,2.60
2019-01-19T18:00:10.047Z,2.50
2019-01-19T18:03:02.294Z,2.33
2019-01-19T18:05:54.588Z,2.03
2019-01-19T18:08:44.051Z,2.20
2019-01-19T18:12:06.933Z,2.07
2019-01-19T18:15:31.255Z,2.27
2019-01-19T18:18:22.568Z,2.30
2019-01-19T18:21:26.895Z,2.20
2019-01-19T18:24:46.400Z,2.10
2019-01-19T18:28:00.563Z,2.30
2019-01-19T18:30:53.354Z,2.03
2019-01-19T18:33:38.504Z,2.40
2019-01-19T18:36:58.035Z,2.30
2019-01-19T18:40:20.361Z,2.37
2019-01-19T18:43:17.540Z,2.20
2019-01-19T18:46:14.536Z,2.37
2019-01-19T18:49:27.718Z,2.50
2019-01-19T18:52:09.203Z,2.90
2019-01-19T18:55:01.829Z,2.27
2019-01-19T18:58:03.997Z,2.40
2019-01-19T19:01:30.328Z,2.60
2019-01-19T19:04:44.809Z,2.10
2019-01-19T19:07:48.277Z,2.63
2019-01-19T19:10:55.099Z,2.37
2019-01-19T19:13:36.708Z,2.63
2019-01-19T19:16:48.427Z,2.10
2019-01-19T19:19:55.447Z,2.23
2019-01-19T19:23:07.320Z,2.57
2019-01-19T19:25:48.381Z,2.67
2019-01-19T19:28:59.850Z,2.23
2019-01-19T19:31:57.872Z,2.30
2019-01-19T19:35:02.987Z,2.70
2019-01-19T19:38:29.452Z,2.40
2019-01-19T19:41:34.400Z,2.60
2019-01-19T19:44:22.316Z,2.43
2019-01-19T19:47:32.364Z,2.60
2019-01-19T19:50:43.204Z,2.90
2019-01-19T19:53:13.777Z,2.57
2019-01-19T19:55:41.665Z,2.30
2019-01-19T19:58:11.049Z,2.30
2019-01-19T20:00:40.440Z,2.70
2019-01-19T20:03:11.834Z,2.83
2019-01-19T20:05:42.753Z,3.03
2019-01-19T20:08:12.032Z,2.83
2019-01-19T20:10:41.322Z,2.70
2019-01-19T20:13:10.720Z,2.77
2019-01-19T20:15:40.098Z,2.50
2019-01-19T20:18:09.467Z,2.80
2019-01-19T20:20:38.920Z,2.80
2019-01-19T20:23:08.343Z,2.70
2019-01-19T20:25:38.049Z,2.90
2019-01-19T20:28:08.198Z,2.80
2019-01-19T20:30:39.244Z,2.70
2019-01-19T20:33:08.598Z,2.83
2019-01-19T20:35:38.807Z,3.10
2019-01-19T20:38:09.347Z,2.83
2019-01-19T20:40:39.126Z,2.43
2019-01-19T20:43:08.509Z,2.90
2019-01-19T20:45:37.817Z,3.00
2019-01-19T20:48:07.141Z,2.97
2019-01-19T20:50:36.852Z,3.07
2019-01-19T20:53:08.998Z,2.60
2019-01-19T20:55:37.500Z,2.80
2019-01-19T20:58:07.913Z,2.97
2019-01-19T21:00:39.247Z,2.93
2019-01-19T21:03:08.611Z,3.13
2019-01-19T21:05:38.851Z,3.00
2019-01-19T21:08:10.690Z,2.80
2019-01-19T21:10:40.506Z,3.40
2019-01-19T21:13:09.774Z,2.90
2019-01-19T21:15:39.144Z,2.73
2019-01-19T21:18:08.906Z,2.97
2019-01-19T21:20:38.299Z,3.07
2019-01-19T21:23:08.042Z,3.03
2019-01-19T21:25:38.058Z,3.13
2019-01-19T21:28:07.429Z,3.37
2019-01-19T21:30:37.083Z,3.10
2019-01-19T21:33:06.516Z,3.20
2019-01-19T21:35:35.870Z,3.10
2019-01-19T21:38:05.220Z,3.13
2019-01-19T21:40:38.979Z,3.10
2019-01-19T21:43:05.667Z,3.40
2019-01-19T21:45:34.992Z,2.90
2019-01-19T21:48:04.302Z,3.17
2019-01-19T21:50:33.658Z,3.20
2019-01-19T21:53:03.003Z,3.23
2019-01-19T21:55:32.393Z,3.00
2019-01-19T21:58:01.712Z,3.43
2019-01-19T22:00:31.006Z,3.20
2019-01-19T22:03:00.741Z,3.80
2019-01-19T22:05:31.103Z,3.57
2019-01-19T22:08:00.559Z,3.40
2019-01-19T22:10:29.944Z,3.40
2019-01-19T22:12:59.314Z,3.40
2019-01-19T22:15:28.903Z,3.40
2019-01-19T22:17:58.202Z,3.70
2019-01-19T22:20:27.564Z,3.40
2019-01-19T22:22:57.172Z,3.27
2019-01-19T22:25:26.442Z,3.17
2019-01-19T22:27:55.744Z,3.40
2019-01-19T22:30:25.468Z,3.23
2019-01-19T22:32:58.486Z,3.83
2019-01-19T22:35:29.688Z,3.37
2019-01-19T22:37:59.041Z,3.40
2019-01-19T22:40:28.353Z,3.70
2019-01-19T22:43:00.254Z,3.83
2019-01-19T22:45:29.662Z,3.50
2019-01-19T22:47:58.964Z,3.47
2019-01-19T22:50:28.229Z,3.70
2019-01-19T22:52:57.568Z,3.80
2019-01-19T22:55:26.869Z,3.53
2019-01-19T22:57:56.099Z,3.60
2019-01-19T23:00:39.726Z,3.57
2019-01-19T23:03:11.439Z,3.70
2019-01-19T23:05:40.774Z,3.60
2019-01-19T23:08:10.017Z,3.60
2019-01-19T23:10:39.214Z,3.60
2019-01-19T23:13:08.415Z,3.70
2019-01-19T23:15:37.660Z,3.73
2019-01-19T23:18:07.148Z,3.70
2019-01-19T23:20:36.278Z,4.00
2019-01-19T23:23:05.423Z,3.70
2019-01-19T23:25:34.780Z,3.70
2019-01-19T23:28:04.010Z,3.90
2019-01-19T23:30:33.194Z,4.20
2019-01-19T23:33:02.371Z,3.63
2019-01-19T23:35:31.580Z,3.90
2019-01-19T23:38:00.856Z,3.40
2019-01-19T23:40:30.066Z,3.43
2019-01-19T23:42:59.174Z,3.87
2019-01-19T23:45:28.386Z,3.70
2019-01-19T23:47:57.609Z,3.87
2019-01-19T23:50:26.766Z,3.87
2019-01-19T23:52:55.962Z,3.77
2019-01-19T23:55:25.192Z,3.60
2019-01-19T23:57:54.302Z,3.63
